createdAt,value
2022-09-28T00:03:18.766Z,99802.88
2022-09-28T00:08:18.240Z,99797.41
2022-09-28T00:13:19.910Z,99781.97
2022-09-28T00:18:21.394Z,99788.88
2022-09-28T00:23:22.565Z,99785.44
2022-09-28T00:28:23.663Z,99809.63
2022-09-28T00:33:26.869Z,99789.59
2022-09-28T00:38:30.864Z,99804.97
2022-09-28T00:43:31.499Z,99774.47
2022-09-28T00:48:33.828Z,99801.53
2022-09-28T00:53:35.503Z,99786.47
2022-09-28T00:58:53.154Z,99798.19
2022-09-28T01:03:55.413Z,99768.84
2022-09-28T01:08:58.658Z,99774.25
2022-09-28T01:13:58.165Z,99795.84
2022-09-28T01:19:38.645Z,99788.06
2022-09-28T01:24:57.108Z,99792.97
2022-09-28T01:30:06.654Z,99764.41
2022-09-28T01:35:16.738Z,99779.31
2022-09-28T01:40:16.996Z,99751.91
2022-09-28T01:45:24.643Z,99778.47
2022-09-28T01:50:28.268Z,99796.31
2022-09-28T01:55:29.875Z,99791.53
2022-09-28T02:00:29.850Z,99793.59
2022-09-28T02:05:41.235Z,99799.09
2022-09-28T02:11:12.657Z,99803.16
2022-09-28T02:16:37.171Z,99816.97
2022-09-28T02:21:47.554Z,99833.97
2022-09-28T02:26:47.316Z,99857.56
2022-09-28T02:31:46.349Z,99856.09
2022-09-28T02:36:46.263Z,99861.44
2022-09-28T02:42:24.040Z,99862.81
2022-09-28T02:48:01.109Z,99852.31
2022-09-28T02:53:36.785Z,99867.38
2022-09-28T02:58:44.325Z,99869.47
2022-09-28T03:03:58.344Z,99848.72
2022-09-28T03:09:05.600Z,99889.81
2022-09-28T03:14:09.247Z,99874.41
2022-09-28T03:19:18.606Z,99889.13
2022-09-28T03:24:17.165Z,99878.28
2022-09-28T03:29:15.932Z,99896.84
2022-09-28T03:34:17.971Z,99882.53
2022-09-28T03:39:17.120Z,99877.06
2022-09-28T03:44:15.230Z,99870.47
2022-09-28T03:49:20.194Z,99883.91
2022-09-28T03:54:21.308Z,99898.88
2022-09-28T03:59:23.738Z,99880.03
2022-09-28T04:04:22.237Z,99895.38
2022-09-28T04:09:24.201Z,99890.22
2022-09-28T04:14:26.065Z,99908.72
2022-09-28T04:19:27.671Z,99921.38
2022-09-28T04:24:43.669Z,99908.44
2022-09-28T04:29:41.893Z,99888.34
2022-09-28T04:34:44.300Z,99901.00
2022-09-28T04:39:48.579Z,99904.44
2022-09-28T04:44:56.010Z,99893.13
2022-09-28T04:49:53.768Z,99911.03
2022-09-28T04:54:57.896Z,99894.50
2022-09-28T04:59:58.395Z,99870.13
2022-09-28T05:05:00.267Z,99900.91
2022-09-28T05:10:22.228Z,99923.44
2022-09-28T05:15:26.353Z,99895.34
2022-09-28T05:20:24.946Z,99896.91
2022-09-28T05:25:24.853Z,99905.03
2022-09-28T05:30:38.531Z,99932.34
2022-09-28T05:36:01.305Z,99926.78
2022-09-28T05:41:07.327Z,99900.97
2022-09-28T05:46:10.269Z,99924.63
2022-09-28T05:51:12.270Z,99925.34
2022-09-28T05:56:13.373Z,99895.78
2022-09-28T06:01:15.541Z,99892.25
2022-09-28T06:06:16.233Z,99927.63
2022-09-28T06:11:28.045Z,99934.50
2022-09-28T06:16:29.358Z,99952.69
2022-09-28T06:21:27.356Z,99942.47
2022-09-28T06:26:25.360Z,99952.34
2022-09-28T06:31:33.379Z,99951.69
2022-09-28T06:36:43.446Z,99955.63
2022-09-28T06:41:45.022Z,99965.13
2022-09-28T06:47:00.626Z,99961.78
2022-09-28T06:52:22.499Z,99991.31
2022-09-28T06:57:44.305Z,99982.66
2022-09-28T07:02:44.647Z,99989.75
2022-09-28T07:08:14.893Z,99975.72
2022-09-28T07:13:49.975Z,99983.81
2022-09-28T07:18:58.087Z,99997.91
2022-09-28T07:23:56.697Z,100011.81
2022-09-28T07:29:07.939Z,99979.88
2022-09-28T07:34:14.391Z,99990.47
2022-09-28T07:40:01.247Z,99985.75
2022-09-28T07:45:04.302Z,99977.81
2022-09-28T07:50:06.332Z,99977.06
2022-09-28T07:55:17.787Z,99981.47
2022-09-28T08:00:37.790Z,99983.47
2022-09-28T08:05:42.529Z,100002.06
2022-09-28T08:10:47.146Z,99977.91
2022-09-28T08:16:13.055Z,100003.63
2022-09-28T08:21:46.126Z,99989.97
2022-09-28T08:26:44.754Z,99989.97
2022-09-28T08:31:48.568Z,99976.00
2022-09-28T08:37:12.930Z,99987.69
2022-09-28T08:42:56.366Z,99986.84
2022-09-28T08:48:39.184Z,99995.31
2022-09-28T08:54:26.643Z,99983.78
2022-09-28T08:59:54.796Z,99974.03
2022-09-28T09:05:15.138Z,99962.13
2022-09-28T09:10:59.372Z,99967.03
2022-09-28T09:16:28.332Z,99960.19
2022-09-28T09:22:01.961Z,99963.94
2022-09-28T09:27:15.031Z,99965.28
2022-09-28T09:32:25.537Z,99964.03
2022-09-28T09:37:27.734Z,99971.72
2022-09-28T09:43:29.356Z,99990.63
2022-09-28T09:49:00.247Z,99982.91
2022-09-28T09:54:13.268Z,99961.13
2022-09-28T09:59:32.314Z,99984.81
2022-09-28T10:04:38.064Z,99983.53
2022-09-28T10:09:46.133Z,99956.09
2022-09-28T10:14:59.745Z,99944.13
2022-09-28T10:20:00.543Z,99958.72
2022-09-28T10:25:01.731Z,99949.41
2022-09-28T10:30:10.983Z,99987.41
2022-09-28T10:35:22.901Z,99984.22
2022-09-28T10:40:47.276Z,99964.22
2022-09-28T10:46:04.918Z,99941.63
2022-09-28T10:51:07.192Z,99967.72
2022-09-28T10:56:28.579Z,99959.44
2022-09-28T11:01:35.786Z,99964.41
2022-09-28T11:06:42.070Z,99950.53
2022-09-28T11:11:44.209Z,99925.94
2022-09-28T11:16:45.374Z,99921.72
2022-09-28T11:21:46.295Z,99912.94
2022-09-28T11:26:50.192Z,99953.72
2022-09-28T11:31:52.822Z,99916.50
2022-09-28T11:37:27.568Z,99955.22
2022-09-28T11:42:45.924Z,99953.06
2022-09-28T11:47:55.419Z,99944.56
2022-09-28T11:53:06.380Z,99912.84
2022-09-28T11:58:17.284Z,99897.94
2022-09-28T12:03:29.860Z,99900.97
2022-09-28T12:08:39.838Z,99907.84
2022-09-28T12:14:10.659Z,99895.75
2022-09-28T12:19:17.923Z,99907.75
2022-09-28T12:24:34.904Z,99918.97
2022-09-28T12:29:41.697Z,99917.66
2022-09-28T12:34:43.355Z,99880.91
2022-09-28T12:39:57.403Z,99904.72
2022-09-28T12:45:05.898Z,99909.41
2022-09-28T12:50:38.585Z,99859.69
2022-09-28T12:56:06.788Z,99907.06
2022-09-28T13:01:38.575Z,99914.69
2022-09-28T13:07:14.524Z,99917.13
2022-09-28T13:12:33.681Z,99922.84
2022-09-28T13:17:53.972Z,99888.41
2022-09-28T13:22:57.402Z,99923.78
2022-09-28T13:28:09.241Z,99902.56
2022-09-28T13:33:12.997Z,99905.38
2022-09-28T13:38:20.967Z,99927.19
2022-09-28T13:43:32.719Z,99905.75
2022-09-28T13:48:59.302Z,99907.25
2022-09-28T13:54:45.869Z,99923.78
2022-09-28T14:00:18.526Z,99925.28
2022-09-28T14:05:28.115Z,99933.53
2022-09-28T14:10:54.929Z,99940.44
2022-09-28T14:15:52.814Z,99925.38
2022-09-28T14:21:14.457Z,99901.75
2022-09-28T14:26:25.730Z,99922.84
2022-09-28T14:31:28.429Z,99916.94
2022-09-28T14:36:49.704Z,99922.16
2022-09-28T14:41:47.228Z,99909.59
2022-09-28T14:46:50.796Z,99915.88
2022-09-28T14:51:56.247Z,99954.34
2022-09-28T14:56:57.373Z,99963.81
2022-09-28T15:02:05.943Z,99925.38
2022-09-28T15:07:03.617Z,99929.69
2022-09-28T15:12:02.788Z,99938.22
2022-09-28T15:17:09.655Z,99926.72
2022-09-28T15:22:18.891Z,99944.69
2022-09-28T15:27:21.037Z,99955.38
2022-09-28T15:32:26.241Z,99963.69
2022-09-28T15:37:26.571Z,99977.47
2022-09-28T15:42:23.937Z,99947.31
2022-09-28T15:47:33.465Z,99936.72
2022-09-28T15:52:40.948Z,99979.53
2022-09-28T15:57:42.599Z,99951.44
2022-09-28T16:03:08.045Z,99953.38
2022-09-28T16:08:06.307Z,99968.59
2022-09-28T16:13:24.127Z,99984.25
2022-09-28T16:18:23.680Z,99948.38
2022-09-28T16:23:33.380Z,99993.34
2022-09-28T16:28:34.699Z,99987.47
2022-09-28T16:34:10.729Z,99952.09
2022-09-28T16:39:14.695Z,99937.97
2022-09-28T16:44:19.990Z,99949.69
2022-09-28T16:49:25.708Z,99994.66
2022-09-28T16:54:49.539Z,99990.41
2022-09-28T16:59:54.197Z,99988.56
2022-09-28T17:04:52.308Z,99972.03
2022-09-28T17:09:52.945Z,99987.97
2022-09-28T17:14:52.583Z,99980.53
2022-09-28T17:19:50.029Z,99996.22
2022-09-28T17:24:47.668Z,99999.13
2022-09-28T17:29:46.150Z,99992.72
2022-09-28T17:34:51.524Z,100002.59
2022-09-28T17:39:53.994Z,99989.03
2022-09-28T17:44:52.148Z,100002.84
2022-09-28T17:49:50.890Z,100006.81
2022-09-28T17:54:48.723Z,99987.41
2022-09-28T17:59:47.038Z,99993.25
2022-09-28T18:04:52.290Z,99988.19
2022-09-28T18:09:58.019Z,99996.72
2022-09-28T18:14:55.384Z,99979.91
2022-09-28T18:19:53.454Z,99997.47
2022-09-28T18:24:51.364Z,100006.19
2022-09-28T18:29:49.716Z,100031.16
2022-09-28T18:34:47.987Z,100012.47
2022-09-28T18:39:48.598Z,100027.09
2022-09-28T18:44:46.647Z,100007.13
2022-09-28T18:49:46.808Z,100009.50
2022-09-28T18:54:47.055Z,100020.63
2022-09-28T18:59:48.498Z,100002.16
2022-09-28T19:04:46.314Z,100024.72
2022-09-28T19:09:44.471Z,99995.78
2022-09-28T19:14:42.098Z,100007.59
2022-09-28T19:19:39.805Z,100005.59
2022-09-28T19:24:37.722Z,100012.13
2022-09-28T19:29:35.366Z,100045.34
2022-09-28T19:34:32.691Z,100025.22
2022-09-28T19:39:41.382Z,100028.09
2022-09-28T19:44:40.108Z,100037.19
2022-09-28T19:49:40.166Z,100039.41
2022-09-28T19:54:39.968Z,100056.75
2022-09-28T19:59:38.668Z,100054.88
2022-09-28T20:04:37.108Z,100064.78
2022-09-28T20:09:34.839Z,100080.19
2022-09-28T20:14:37.723Z,100077.16
2022-09-28T20:19:40.939Z,100055.13
2022-09-28T20:24:44.627Z,100063.88
2022-09-28T20:29:46.441Z,100059.47
2022-09-28T20:34:46.510Z,100062.91
2022-09-28T20:39:45.263Z,100089.78
2022-09-28T20:44:43.927Z,100064.63
2022-09-28T20:49:44.559Z,100101.66
2022-09-28T20:54:43.560Z,100102.09
2022-09-28T20:59:43.022Z,100089.47
2022-09-28T21:04:41.484Z,100050.50
2022-09-28T21:09:39.587Z,100080.03
2022-09-28T21:14:39.948Z,100083.69
2022-09-28T21:19:37.310Z,100081.69
2022-09-28T21:24:34.616Z,100092.16
2022-09-28T21:29:36.442Z,100113.72
2022-09-28T21:34:36.200Z,100106.19
2022-09-28T21:39:35.208Z,100088.53
2022-09-28T21:44:36.792Z,100067.75
2022-09-28T21:49:34.289Z,100077.25
2022-09-28T21:54:32.422Z,100073.22
2022-09-28T21:59:30.515Z,100068.03
2022-09-28T22:04:29.539Z,100072.16
2022-09-28T22:09:27.724Z,100101.91
2022-09-28T22:14:27.401Z,100074.06
2022-09-28T22:19:25.495Z,100058.19
2022-09-28T22:24:24.530Z,100076.41
2022-09-28T22:29:26.453Z,100083.28
2022-09-28T22:34:25.797Z,100084.75
2022-09-28T22:39:24.146Z,100085.53
2022-09-28T22:44:23.063Z,100062.50
2022-09-28T22:49:21.683Z,100048.03
2022-09-28T22:54:20.509Z,100046.69
2022-09-28T22:59:19.098Z,100039.19
2022-09-28T23:04:17.406Z,100046.53
2022-09-28T23:09:18.945Z,100033.25
2022-09-28T23:14:17.158Z,100058.81
2022-09-28T23:19:16.411Z,100022.00
2022-09-28T23:24:14.809Z,100019.97
2022-09-28T23:29:13.977Z,100033.09
2022-09-28T23:34:12.452Z,100039.69
2022-09-28T23:39:13.436Z,100046.06
2022-09-28T23:44:14.585Z,100027.31
2022-09-28T23:49:13.747Z,100009.50
2022-09-28T23:54:16.146Z,100051.41
2022-09-28T23:59:15.482Z,100032.53
